Time;durP1;ratioP1;P1;durP2;ratioP2;P2;SDS_P1;SDS_P2;PMS_P1;PMS_P2;Temp;Humidity;BMP_temperature;BMP_pressure;BME280_temperature;BME280_humidity;BME280_pressure;Samples;Min_cycle;Max_cycle;Signal;HPM_P1;HPM_P2
2021/10/27 00:01:21;;;;;;;16.23;12.83;;;;;;;5.18;66.45;101198.38;1687727;84;21054;-62
2021/10/27 00:03:48;;;;;;;17.37;13.83;;;;;;;5.15;66.56;101194.20;1677416;84;21582;-59
2021/10/27 00:06:15;;;;;;;15.65;13.18;;;;;;;5.23;66.29;101192.22;1682914;84;21010;-63
2021/10/27 00:08:41;;;;;;;17.77;13.77;;;;;;;5.22;66.36;101198.00;1671934;84;21081;-61
2021/10/27 00:11:09;;;;;;;24.92;14.10;;;;;;;5.15;66.65;101198.66;1681441;84;21010;-60
2021/10/27 00:13:35;;;;;;;18.40;14.13;;;;;;;5.12;66.63;101194.95;1682699;84;21534;-60
2021/10/27 00:16:02;;;;;;;17.12;14.25;;;;;;;5.06;67.04;101186.56;1668560;84;21030;-63
2021/10/27 00:18:29;;;;;;;17.63;14.47;;;;;;;5.02;67.50;101183.84;1683115;84;21015;-60
2021/10/27 00:20:56;;;;;;;18.17;12.75;;;;;;;5.12;67.19;101189.17;1683938;84;21116;-60
2021/10/27 00:23:22;;;;;;;21.02;12.75;;;;;;;5.13;67.10;101184.25;1686246;83;21587;-60
2021/10/27 00:25:48;;;;;;;20.02;14.38;;;;;;;5.08;67.33;101177.19;1677598;83;21021;-60
2021/10/27 00:28:14;;;;;;;21.07;13.25;;;;;;;5.05;67.45;101182.27;1679527;83;21600;-63
2021/10/27 00:30:41;;;;;;;17.42;13.15;;;;;;;5.00;67.78;101184.95;1672902;83;21144;-61
2021/10/27 00:33:07;;;;;;;17.12;13.55;;;;;;;4.99;67.89;101183.27;1683296;81;21073;-59
2021/10/27 00:35:34;;;;;;;15.85;13.28;;;;;;;5.05;67.77;101182.27;1676685;83;21013;-60
2021/10/27 00:38:01;;;;;;;24.73;14.63;;;;;;;5.04;67.82;101183.22;1686002;83;21052;-61
2021/10/27 00:40:29;;;;;;;16.40;13.15;;;;;;;5.03;67.80;101186.02;1683415;83;21224;-62
2021/10/27 00:42:55;;;;;;;18.63;14.43;;;;;;;4.99;68.01;101185.91;1696048;83;21155;-61
2021/10/27 00:45:21;;;;;;;18.67;13.88;;;;;;;4.97;68.04;101183.88;1695554;83;21014;-67
2021/10/27 00:47:47;;;;;;;;;;;;;;;5.05;68.03;101185.41;1693208;83;21595;-61
2021/10/27 00:50:15;;;;;;;18.62;14.80;;;;;;;5.08;67.94;101171.91;1680521;83;20180;-59
2021/10/27 00:52:42;;;;;;;19.57;16.17;;;;;;;5.00;68.04;101179.17;1672051;83;21623;-61
2021/10/27 00:55:08;;;;;;;24.75;16.40;;;;;;;4.96;68.25;101171.16;1679836;83;21072;-61
2021/10/27 00:57:37;;;;;;;20.03;15.03;;;;;;;4.91;68.59;101158.83;1692150;83;21088;-59
2021/10/27 01:00:07;;;;;;;19.03;15.27;;;;;;;4.91;68.73;101169.39;1684400;83;21129;-62
2021/10/27 01:02:33;;;;;;;23.13;16.63;;;;;;;4.98;68.66;101169.72;1677498;83;21552;-61
2021/10/27 01:04:59;;;;;;;20.32;15.88;;;;;;;5.01;68.43;101170.30;1688175;84;21080;-60
2021/10/27 01:07:26;;;;;;;20.88;16.55;;;;;;;4.98;68.81;101169.23;1685495;84;21045;-60
2021/10/27 01:09:53;;;;;;;18.40;15.17;;;;;;;4.96;68.87;101167.69;1691257;83;21025;-59
2021/10/27 01:12:19;;;;;;;17.77;15.23;;;;;;;4.88;69.23;101161.75;1684752;83;21044;-59
2021/10/27 01:14:47;;;;;;;19.12;15.00;;;;;;;4.90;69.35;101153.20;1671470;83;21080;-61
2021/10/27 01:17:16;;;;;;;17.20;13.87;;;;;;;4.90;69.45;101166.41;1677571;83;21567;-60
2021/10/27 01:19:56;;;;;;;19.03;13.50;;;;;;;4.89;69.40;101155.48;1687638;83;21116;-59
2021/10/27 01:22:31;;;;;;;14.37;12.77;;;;;;;4.84;69.71;101158.52;1686895;83;21127;-60
2021/10/27 01:25:00;;;;;;;18.10;13.23;;;;;;;4.79;69.97;101159.88;1695503;83;20990;-59
2021/10/27 01:27:27;;;;;;;18.23;13.60;;;;;;;4.80;70.01;101154.94;1695619;83;21125;-61
2021/10/27 01:29:55;;;;;;;19.23;14.13;;;;;;;4.84;69.95;101153.70;1677415;83;21009;-60
2021/10/27 01:32:37;;;;;;;19.83;14.37;;;;;;;4.85;69.91;101141.69;1638469;86;20996;-62
2021/10/27 01:35:01;;;;;;;16.43;13.87;;;;;;;4.79;70.18;101146.19;1686709;83;21576;-59
2021/10/27 01:37:27;;;;;;;21.02;14.35;;;;;;;4.75;70.38;101155.84;1687896;85;21320;-59
2021/10/27 01:39:54;;;;;;;18.60;14.10;;;;;;;4.73;70.66;101144.08;1679368;83;21481;-59
2021/10/27 01:42:21;;;;;;;20.47;13.57;;;;;;;4.78;70.56;101142.35;1692693;83;21044;-60
2021/10/27 01:44:47;;;;;;;14.78;12.35;;;;;;;4.81;70.63;101148.70;1694570;83;21209;-62
2021/10/27 01:47:14;;;;;;;16.40;14.05;;;;;;;4.75;70.97;101139.98;1686934;83;21041;-61
2021/10/27 01:49:40;;;;;;;24.33;13.30;;;;;;;4.72;71.08;101134.95;1695310;83;21548;-71
2021/10/27 01:52:08;;;;;;;14.47;12.77;;;;;;;4.73;71.01;101126.91;1679143;83;21049;-65
2021/10/27 01:54:34;;;;;;;19.57;13.53;;;;;;;4.75;71.24;101132.89;1695192;83;21056;-58
2021/10/27 01:57:02;;;;;;;17.20;13.00;;;;;;;4.76;71.33;101122.66;1684968;83;22060;-60
2021/10/27 01:59:28;;;;;;;21.60;14.50;;;;;;;4.72;71.47;101125.71;1684931;83;21064;-60
2021/10/27 02:01:55;;;;;;;19.92;13.18;;;;;;;4.65;71.94;101122.74;1694943;83;21579;-60
2021/10/27 02:04:22;;;;;;;16.73;14.37;;;;;;;4.72;71.75;101127.86;1695652;83;21504;-60
2021/10/27 02:06:49;;;;;;;;;;;;;;;4.74;71.83;101129.06;1697200;83;21548;-59
2021/10/27 02:09:17;;;;;;;18.15;13.75;;;;;;;4.76;71.71;101127.95;1694988;83;20829;-60
2021/10/27 02:11:45;;;;;;;18.80;13.83;;;;;;;4.72;71.85;101125.22;1691391;83;21085;-59
2021/10/27 02:14:12;;;;;;;20.27;15.25;;;;;;;4.66;72.15;101119.15;1684210;83;21136;-60
2021/10/27 02:16:38;;;;;;;18.27;12.90;;;;;;;4.63;72.22;101122.04;1681157;83;21028;-62
2021/10/27 02:19:06;;;;;;;18.67;14.85;;;;;;;4.69;72.14;101116.26;1695512;83;21067;-63
2021/10/27 02:21:32;;;;;;;15.80;14.00;;;;;;;4.72;72.28;101115.15;1684577;85;21063;-61
2021/10/27 02:23:59;;;;;;;21.80;14.85;;;;;;;4.73;72.50;101118.98;1678109;83;21024;-60
2021/10/27 02:26:24;;;;;;;17.30;14.45;;;;;;;4.71;72.54;101126.67;1684575;83;21091;-59
2021/10/27 02:28:52;;;;;;;;;;;;;;;4.66;72.69;101128.39;1670041;83;21065;-61
2021/10/27 02:31:19;;;;;;;16.57;14.00;;;;;;;4.66;72.95;101125.75;1694846;83;20162;-60
2021/10/27 02:33:45;;;;;;;;;;;;;;;4.63;73.12;101119.40;1701281;83;20992;-60
2021/10/27 02:36:11;;;;;;;17.73;13.57;;;;;;;4.67;72.95;101115.52;1683159;83;20157;-63
2021/10/27 02:38:38;;;;;;;18.05;14.35;;;;;;;4.63;73.30;101106.20;1701869;83;21611;-61
2021/10/27 02:41:04;;;;;;;22.73;14.00;;;;;;;4.61;73.41;101113.41;1695438;83;20997;-70
2021/10/27 02:43:32;;;;;;;21.50;13.63;;;;;;;4.59;73.43;101119.31;1688498;83;21088;-61
2021/10/27 02:46:00;;;;;;;16.47;13.17;;;;;;;4.61;73.48;101117.38;1684959;83;20996;-59
2021/10/27 02:48:26;;;;;;;19.75;13.95;;;;;;;4.66;73.44;101109.41;1684866;83;21639;-58
2021/10/27 02:50:52;;;;;;;17.50;14.35;;;;;;;4.67;73.62;101114.20;1695815;83;21037;-58
2021/10/27 02:53:18;;;;;;;20.45;13.68;;;;;;;4.71;73.46;101105.54;1691250;83;21082;-59
2021/10/27 02:58:22;;;;;;;18.43;14.13;;;;;;;4.70;73.92;101107.84;1813187;77;22801;-61
2021/10/27 03:00:48;;;;;;;15.18;13.62;;;;;;;4.61;74.02;101110.77;1752729;78;21504;-61
2021/10/27 03:03:14;;;;;;;17.12;11.93;;;;;;;4.66;74.19;101098.85;1731474;81;21013;-60
2021/10/27 03:05:40;;;;;;;28.05;13.43;;;;;;;4.71;74.07;101101.58;1726449;81;21560;-62
2021/10/27 03:08:06;;;;;;;21.73;14.78;;;;;;;4.72;74.06;101100.13;1691797;83;21124;-59
2021/10/27 03:10:32;;;;;;;14.47;12.73;;;;;;;4.67;74.14;101095.72;1689993;84;21516;-58
2021/10/27 03:12:58;;;;;;;14.53;12.88;;;;;;;4.62;74.69;101098.77;1695640;83;21517;-60
2021/10/27 03:15:25;;;;;;;13.85;12.35;;;;;;;4.68;74.50;101106.65;1687432;83;21661;-60
2021/10/27 03:17:51;;;;;;;20.80;14.05;;;;;;;4.72;74.47;101100.13;1681143;83;21049;-59
2021/10/27 03:20:17;;;;;;;19.40;14.00;;;;;;;4.73;74.51;101107.09;1680543;83;21078;-59
2021/10/27 03:22:43;;;;;;;13.60;12.05;;;;;;;4.67;74.59;101105.82;1687727;83;21021;-59
2021/10/27 03:25:09;;;;;;;18.10;12.85;;;;;;;4.63;74.85;101100.91;1709288;83;21014;-59
2021/10/27 03:27:37;;;;;;;13.73;12.30;;;;;;;4.67;74.64;101101.86;1701669;83;21042;-61
2021/10/27 03:30:06;;;;;;;16.97;12.87;;;;;;;4.70;74.62;101093.32;1703848;83;21005;-58
2021/10/27 03:32:33;;;;;;;12.73;10.97;;;;;;;4.71;74.83;101091.88;1700680;83;20990;-59
2021/10/27 03:35:00;;;;;;;15.55;13.28;;;;;;;4.72;74.66;101085.61;1658510;84;21051;-60
2021/10/27 03:37:26;;;;;;;17.12;13.38;;;;;;;4.69;74.95;101084.56;1668894;85;21066;-59
2021/10/27 03:39:53;;;;;;;17.55;12.75;;;;;;;4.65;75.06;101085.77;1658504;86;21041;-62
2021/10/27 03:42:19;;;;;;;15.37;13.37;;;;;;;4.60;75.20;101087.50;1657778;85;21059;-60
2021/10/27 03:44:45;;;;;;;14.85;11.83;;;;;;;4.61;75.17;101083.88;1645698;85;21022;-61
2021/10/27 03:47:12;;;;;;;16.77;13.32;;;;;;;4.63;75.32;101081.97;1656817;86;21617;-60
2021/10/27 03:49:38;;;;;;;19.87;12.93;;;;;;;4.64;75.40;101081.48;1671973;85;21069;-60
2021/10/27 03:52:06;;;;;;;16.90;11.78;;;;;;;4.66;75.43;101076.90;1661331;85;21368;-63
2021/10/27 03:54:33;;;;;;;14.53;12.50;;;;;;;4.66;75.49;101072.94;1668710;85;21061;-61
2021/10/27 03:57:00;;;;;;;17.67;13.87;;;;;;;4.62;75.62;101084.24;1648543;84;21097;-58
2021/10/27 03:59:26;;;;;;;18.87;13.35;;;;;;;4.57;75.68;101073.23;1654121;85;20986;-59
2021/10/27 04:01:52;;;;;;;23.45;13.55;;;;;;;4.57;75.82;101079.00;1673818;84;21504;-60
2021/10/27 04:04:18;;;;;;;17.40;12.33;;;;;;;4.59;75.87;101079.70;1676490;85;21018;-60
2021/10/27 04:06:46;;;;;;;17.73;16.00;;;;;;;4.59;75.92;101080.53;1666068;84;21553;-59
2021/10/27 04:09:13;;;;;;;22.58;17.52;;;;;;;4.61;75.86;101081.23;1659103;85;21094;-58
2021/10/27 04:11:41;;;;;;;19.30;16.47;;;;;;;4.63;75.87;101081.97;1665489;84;21093;-60
2021/10/27 04:14:08;;;;;;;15.73;12.93;;;;;;;4.66;75.75;101078.22;1670105;84;21153;-59
2021/10/27 04:16:34;;;;;;;21.02;14.60;;;;;;;4.63;75.87;101078.47;1685634;84;21091;-59
2021/10/27 04:19:00;;;;;;;17.00;13.32;;;;;;;4.59;76.01;101074.42;1669462;84;21005;-59
2021/10/27 04:21:26;;;;;;;18.32;13.45;;;;;;;4.58;76.03;101075.41;1691909;84;21008;-59
2021/10/27 04:23:52;;;;;;;17.05;13.00;;;;;;;4.62;76.17;101077.64;1704260;83;21016;-60
2021/10/27 04:26:18;;;;;;;18.15;12.78;;;;;;;4.65;76.11;101074.75;1695144;82;21033;-60
2021/10/27 04:28:44;;;;;;;16.00;12.43;;;;;;;4.67;76.08;101081.19;1715220;81;21621;-63
2021/10/27 04:31:11;;;;;;;12.73;10.63;;;;;;;4.71;76.00;101085.27;1699269;83;21047;-60
2021/10/27 04:33:37;;;;;;;14.13;11.90;;;;;;;4.73;75.95;101088.61;1690429;83;21001;-60
2021/10/27 04:36:04;;;;;;;14.70;13.18;;;;;;;4.70;76.01;101087.55;1682099;84;21014;-60
2021/10/27 04:38:30;;;;;;;16.10;12.60;;;;;;;4.67;76.18;101084.70;1655292;84;21015;-62
2021/10/27 04:40:56;;;;;;;14.10;12.68;;;;;;;4.67;76.29;101081.19;1696945;83;21136;-61
2021/10/27 04:43:23;;;;;;;15.13;12.80;;;;;;;4.73;76.16;101083.33;1685172;83;21022;-61
2021/10/27 04:45:49;;;;;;;16.60;11.90;;;;;;;4.77;75.99;101083.91;1705210;82;21566;-60
2021/10/27 04:48:15;;;;;;;14.05;11.33;;;;;;;4.80;76.05;101079.20;1704067;84;21092;-64
2021/10/27 04:50:42;;;;;;;12.07;10.88;;;;;;;4.75;76.13;101060.27;1694625;84;21483;-62
2021/10/27 04:53:15;;;;;;;15.38;12.18;;;;;;;4.84;76.09;101079.74;1684386;84;21528;-61
2021/10/27 04:55:43;;;;;;;13.63;10.93;;;;;;;4.82;76.16;101086.50;1687488;84;22018;-61
2021/10/27 04:58:09;;;;;;;18.73;13.73;;;;;;;4.84;76.14;101092.95;1693957;83;21146;-62
2021/10/27 05:00:37;;;;;;;14.97;13.37;;;;;;;4.90;76.20;101088.48;1700055;83;20998;-60
2021/10/27 05:03:03;;;;;;;;;;;;;;;5.02;75.89;101091.36;1700711;83;20999;-61
2021/10/27 05:05:35;;;;;;;15.87;12.73;;;;;;;5.23;75.60;101093.92;1662546;83;20137;-64
2021/10/27 05:08:01;;;;;;;18.67;12.87;;;;;;;5.42;75.25;101102.39;1689235;83;21107;-64
2021/10/27 05:10:27;;;;;;;14.77;11.73;;;;;;;5.70;74.79;101096.46;1671213;83;21077;-65
2021/10/27 05:12:53;;;;;;;14.85;13.20;;;;;;;5.88;73.67;101090.84;1677253;83;20969;-62
2021/10/27 05:15:19;;;;;;;17.20;12.18;;;;;;;5.91;72.96;101082.59;1666848;83;21043;-60
2021/10/27 05:17:46;;;;;;;15.55;11.80;;;;;;;5.87;72.93;101089.65;1677283;84;21041;-61
2021/10/27 05:20:14;;;;;;;18.45;11.63;;;;;;;5.87;73.12;101103.70;1693306;83;21048;-60
2021/10/27 05:22:40;;;;;;;14.67;11.40;;;;;;;6.06;72.86;101095.45;1670404;83;21080;-61
2021/10/27 05:25:08;;;;;;;14.93;12.73;;;;;;;6.37;72.42;101094.30;1670603;83;20986;-61
2021/10/27 05:27:35;;;;;;;13.70;11.63;;;;;;;6.77;71.32;101094.53;1670514;83;21048;-65
2021/10/27 05:30:07;;;;;;;14.87;11.23;;;;;;;7.24;70.27;101092.81;1663505;83;21068;-61
2021/10/27 05:32:33;;;;;;;15.83;12.27;;;;;;;7.71;68.53;101094.80;1685760;83;21032;-63
2021/10/27 05:35:00;;;;;;;12.70;11.23;;;;;;;8.14;66.43;101104.31;1672131;82;20995;-61
2021/10/27 05:37:26;;;;;;;17.30;12.13;;;;;;;8.44;64.95;101112.84;1686442;84;21102;-61
2021/10/27 05:39:52;;;;;;;14.35;11.97;;;;;;;8.74;64.03;101100.44;1687138;84;21073;-61
2021/10/27 05:42:21;;;;;;;19.17;12.95;;;;;;;9.04;62.34;101103.59;1695998;84;20994;-63
2021/10/27 05:44:49;;;;;;;25.33;12.90;;;;;;;9.27;61.51;101101.17;1699147;81;20991;-63
2021/10/27 05:47:16;;;;;;;14.23;12.13;;;;;;;9.29;60.29;101100.52;1746644;81;21066;-61
2021/10/27 05:49:55;;;;;;;13.40;12.00;;;;;;;8.95;60.72;101099.22;1722914;81;20979;-62
2021/10/27 05:55:05;;;;;;;15.23;12.57;;;;;;;7.92;63.58;101099.80;1742806;81;22281;-60
2021/10/27 05:57:47;;;;;;;16.07;12.98;;;;;;;7.51;65.01;101098.56;1718740;82;21066;-60
2021/10/27 05:59:54;;;;;;;14.30;10.33;;;;;;;7.23;66.16;101102.56;1702545;82;21537;-64
2021/10/27 06:02:20;;;;;;;12.60;11.18;;;;;;;7.15;66.56;101109.09;1726872;82;21204;-62
2021/10/27 06:04:46;;;;;;;15.25;12.43;;;;;;;7.04;67.06;101107.97;1728668;82;20991;-61
2021/10/27 06:07:13;;;;;;;;;;;;;;;6.91;67.47;101117.56;1733131;83;21078;-61
2021/10/27 06:09:40;;;;;;;14.23;12.68;;;;;;;6.83;67.89;101116.47;1722702;82;20120;-65
2021/10/27 06:12:12;;;;;;;14.23;12.80;;;;;;;6.73;68.42;101110.38;1726066;82;22270;-63
2021/10/27 06:14:35;;;;;;;13.10;11.70;;;;;;;6.71;68.36;101104.89;1699213;82;21585;-62
2021/10/27 06:17:03;;;;;;;13.83;12.33;;;;;;;6.81;68.17;101105.19;1719719;82;21055;-60
2021/10/27 06:19:29;;;;;;;15.13;12.87;;;;;;;6.88;67.92;101092.20;1720205;82;21018;-58
2021/10/27 06:21:55;;;;;;;16.65;12.53;;;;;;;6.86;67.97;101102.12;1728024;82;21085;-60
2021/10/27 06:24:21;;;;;;;;;;;;;;;6.87;67.85;101108.24;1729735;81;21204;-63
2021/10/27 06:26:49;;;;;;;17.17;13.53;;;;;;;6.85;67.95;101112.36;1729951;81;20162;-62
2021/10/27 06:29:23;;;;;;;14.60;12.60;;;;;;;6.82;67.99;101120.62;1718431;81;21087;-60
2021/10/27 06:31:47;;;;;;;13.10;11.33;;;;;;;6.83;67.91;101136.84;1730859;81;21028;-60
2021/10/27 06:34:29;;;;;;;14.30;12.80;;;;;;;6.91;67.69;101127.70;1720120;81;21027;-59
2021/10/27 06:47:31;;;;;;;19.47;14.93;;;;;;;7.14;66.45;101146.72;1746847;81;21533;-62
2021/10/27 06:49:57;;;;;;;13.78;12.53;;;;;;;7.15;66.65;101153.67;1739287;81;22143;-62
2021/10/27 06:52:23;;;;;;;17.92;14.40;;;;;;;7.21;66.38;101132.37;1719798;81;20986;-59
2021/10/27 06:54:52;;;;;;;17.40;13.45;;;;;;;7.29;66.14;101135.61;1727747;81;21541;-60
2021/10/27 06:57:23;;;;;;;15.93;12.67;;;;;;;7.46;65.85;101132.19;1745909;79;21025;-60
2021/10/27 06:59:48;;;;;;;16.23;12.63;;;;;;;7.60;65.17;101120.22;1733227;81;21035;-65
2021/10/27 07:02:45;;;;;;;16.37;13.43;;;;;;;7.58;64.53;101112.41;1758754;80;20997;-62
2021/10/27 07:05:07;;;;;;;18.33;14.37;;;;;;;7.43;64.87;101105.95;1713116;81;21021;-62
2021/10/27 07:17:57;;;;;;;15.53;13.63;;;;;;;7.29;65.20;101099.80;1737687;81;21608;-62
2021/10/27 07:20:24;;;;;;;14.55;13.05;;;;;;;7.33;65.09;101109.16;1757871;80;21055;-61
2021/10/27 07:22:53;;;;;;;19.73;13.73;;;;;;;7.38;65.05;101100.25;1753354;81;21874;-61
2021/10/27 07:25:19;;;;;;;23.50;14.73;;;;;;;7.46;65.11;101099.03;1731796;81;21050;-61
2021/10/27 07:27:46;;;;;;;16.97;15.13;;;;;;;7.57;64.97;101100.14;1748666;81;21008;-61
2021/10/27 07:30:13;;;;;;;16.97;15.17;;;;;;;7.71;64.31;101097.95;1728226;81;21481;-60
2021/10/27 07:32:40;;;;;;;22.63;16.20;;;;;;;7.82;63.71;101103.51;1730025;81;20977;-62
2021/10/27 07:40:35;;;;;;;18.40;14.80;;;;;;;7.97;63.00;101096.20;1700616;82;21069;-71
2021/10/27 07:43:09;;;;;;;27.50;18.60;;;;;;;8.01;62.85;101095.41;1703560;82;21017;-66
2021/10/27 07:45:38;;;;;;;21.70;16.90;;;;;;;8.06;62.71;101094.94;1698922;82;21570;-63
2021/10/27 07:48:05;;;;;;;22.03;18.00;;;;;;;8.13;62.39;101093.34;1676344;84;21049;-67
2021/10/27 07:50:34;;;;;;;17.43;15.67;;;;;;;8.16;61.76;101089.06;1676827;84;21053;-68
2021/10/27 07:53:03;;;;;;;18.13;15.63;;;;;;;8.19;61.92;101087.41;1677472;84;21041;-64
2021/10/27 07:55:31;;;;;;;19.57;17.60;;;;;;;8.27;61.75;101090.14;1651932;84;21112;-60
2021/10/27 07:57:58;;;;;;;18.73;16.80;;;;;;;8.39;61.73;101086.73;1679391;85;22116;-62
2021/10/27 08:00:26;;;;;;;22.27;16.37;;;;;;;8.51;61.08;101093.50;1667804;84;21054;-61
2021/10/27 08:02:53;;;;;;;20.10;17.17;;;;;;;8.62;60.78;101096.88;1675566;84;21011;-62
2021/10/27 08:05:20;;;;;;;21.50;16.15;;;;;;;8.70;60.13;101100.89;1696191;84;20991;-61
2021/10/27 08:07:50;;;;;;;23.23;16.57;;;;;;;8.73;59.76;101098.76;1672244;83;21012;-64
2021/10/27 08:10:18;;;;;;;20.13;15.43;;;;;;;8.79;59.63;101088.49;1672692;84;21538;-61
2021/10/27 08:12:46;;;;;;;20.30;16.53;;;;;;;8.89;59.56;101085.20;1695484;82;20999;-63
2021/10/27 08:15:14;;;;;;;18.77;15.90;;;;;;;8.95;59.23;101078.77;1709166;82;21075;-61
2021/10/27 08:17:41;;;;;;;20.20;16.03;;;;;;;8.97;59.03;101073.30;1733263;82;21505;-62
2021/10/27 08:20:09;;;;;;;;;;;;;;;8.96;59.08;101071.12;1730454;82;21050;-61
2021/10/27 08:22:37;;;;;;;19.87;16.63;;;;;;;8.99;58.71;101077.14;1679741;83;20136;-62
2021/10/27 08:25:07;;;;;;;19.70;16.43;;;;;;;8.96;58.66;101079.59;1646757;85;21105;-62
2021/10/27 08:27:36;;;;;;;21.60;15.93;;;;;;;8.93;58.50;101080.77;1672612;83;21081;-62
2021/10/27 08:30:07;;;;;;;26.40;18.83;;;;;;;8.98;58.15;101078.94;1671192;84;21624;-63
2021/10/27 08:32:45;;;;;;;24.33;17.57;;;;;;;9.01;58.00;101083.12;1656621;85;21031;-61
2021/10/27 08:35:13;;;;;;;21.52;16.52;;;;;;;9.04;58.01;101082.78;1692340;82;21540;-59
2021/10/27 08:37:48;;;;;;;22.07;17.20;;;;;;;9.04;58.01;101082.78;1689445;82;21061;-60
2021/10/27 08:40:20;;;;;;;25.03;17.93;;;;;;;9.06;57.94;101083.45;1705074;83;21085;-66
2021/10/27 08:42:47;;;;;;;26.67;16.90;;;;;;;9.13;58.09;101088.48;1704564;82;21019;-66
2021/10/27 08:45:14;;;;;;;19.83;16.33;;;;;;;9.23;58.09;101084.34;1728047;81;21097;-62
2021/10/27 08:47:48;;;;;;;25.17;16.37;;;;;;;9.39;58.03;101092.89;1760609;81;21540;-63
2021/10/27 08:50:15;;;;;;;19.07;15.87;;;;;;;9.57;57.41;101085.63;1753910;81;21534;-62
2021/10/27 08:52:43;;;;;;;20.17;16.50;;;;;;;9.75;57.23;101087.63;1750360;81;22066;-61
2021/10/27 08:55:12;;;;;;;26.27;16.70;;;;;;;9.94;56.47;101093.17;1756840;80;21042;-61
2021/10/27 08:57:40;;;;;;;23.10;16.73;;;;;;;10.09;55.88;101088.49;1711642;83;21522;-64
2021/10/27 09:56:10;;;;;;;19.03;16.33;;;;;;;10.93;51.73;101059.70;1715891;82;21062;-60
2021/10/27 10:04:15;;;;;;;20.77;16.03;;;;;;;11.06;51.60;101055.16;1697535;83;21592;-65
2021/10/27 10:06:47;;;;;;;21.33;16.30;;;;;;;11.10;51.56;101057.80;1698476;83;21001;-62
2021/10/27 10:09:15;;;;;;;24.17;16.03;;;;;;;11.17;51.48;101054.77;1720543;83;21450;-63
2021/10/27 10:11:41;;;;;;;22.10;16.60;;;;;;;11.26;51.04;101058.20;1698260;80;21625;-64
2021/10/27 10:14:12;;;;;;;25.60;16.83;;;;;;;11.33;50.81;101057.02;1680842;84;21053;-64
2021/10/27 10:16:51;;;;;;;16.93;15.20;;;;;;;11.40;50.57;101055.31;1657424;85;21113;-63
2021/10/27 10:19:36;;;;;;;21.83;17.03;;;;;;;11.46;50.37;101055.94;1660449;85;21141;-62
2021/10/27 10:22:05;;;;;;;20.17;16.43;;;;;;;11.54;50.19;101055.05;1696265;83;21060;-63
2021/10/27 10:24:35;;;;;;;21.27;16.50;;;;;;;11.61;49.84;101049.33;1676021;84;21020;-62
2021/10/27 10:27:09;;;;;;;25.00;16.50;;;;;;;11.66;49.65;101050.97;1707296;83;20997;-62
2021/10/27 10:29:44;;;;;;;23.37;16.70;;;;;;;11.70;49.62;101049.60;1688306;83;21004;-64
2021/10/27 10:32:28;;;;;;;22.93;16.87;;;;;;;11.74;49.47;101048.74;1693794;83;21578;-62
2021/10/27 10:35:09;;;;;;;22.57;16.53;;;;;;;11.76;49.44;101045.39;1710031;82;21026;-62
2021/10/27 10:38:28;;;;;;;30.02;17.07;;;;;;;11.79;49.46;101055.21;1706198;82;21031;-61
2021/10/27 10:40:38;;;;;;;18.47;15.83;;;;;;;11.75;49.22;101052.55;1688799;82;21080;-62
2021/10/27 10:56:53;;;;;;;21.63;17.70;;;;;;;11.29;50.71;101053.86;1704147;81;21082;-60
2021/10/27 11:25:15;;;;;;;22.10;18.00;;;;;;;11.05;51.93;101045.48;1695833;83;21061;-61
2021/10/27 11:38:55;;;;;;;33.97;18.90;;;;;;;11.19;51.94;101049.23;1709822;83;21015;-61
2021/10/27 11:41:52;;;;;;;21.60;17.63;;;;;;;11.22;52.06;101046.23;1677458;83;21059;-62
2021/10/27 11:44:43;;;;;;;24.33;19.97;;;;;;;11.24;52.23;101053.55;1688970;83;21106;-61
2021/10/27 11:47:08;;;;;;;20.43;18.23;;;;;;;11.23;52.61;101050.06;1617919;86;21102;-64
2021/10/27 11:49:42;;;;;;;29.67;20.43;;;;;;;11.25;52.79;101053.89;1621496;86;21322;-63
2021/10/27 11:52:09;;;;;;;;;;;;;;;11.28;52.74;101053.52;1644246;86;21058;-63
2021/10/27 11:54:38;;;;;;;;;;;;;;;11.32;52.78;101052.19;1648599;85;20144;-63
2021/10/27 11:57:11;;;;;;;25.73;20.03;;;;;;;11.34;53.01;101058.66;1692811;83;20466;-65
2021/10/27 11:59:49;;;;;;;29.57;21.47;;;;;;;11.37;52.92;101053.80;1627255;86;21068;-66
2021/10/27 12:02:16;;;;;;;26.73;20.83;;;;;;;11.45;52.80;101056.45;1711375;82;21034;-65
2021/10/27 12:04:43;;;;;;;30.53;20.43;;;;;;;11.49;52.72;101055.59;1713197;82;21534;-64
2021/10/27 12:07:20;;;;;;;25.27;20.77;;;;;;;11.50;52.85;101051.89;1697934;82;21019;-63
2021/10/27 12:12:45;;;;;;;25.37;20.50;;;;;;;11.44;53.19;101055.28;1647452;85;21069;-64
2021/10/27 12:17:58;;;;;;;27.53;21.83;;;;;;;11.33;53.76;101060.51;1712410;82;21218;-65
2021/10/27 12:20:11;;;;;;;32.87;23.10;;;;;;;11.32;54.23;101061.53;1712802;82;21061;-61
2021/10/27 12:22:37;;;;;;;26.90;22.10;;;;;;;11.28;54.56;101068.20;1714817;82;21088;-65
2021/10/27 12:25:10;;;;;;;22.82;19.85;;;;;;;11.26;54.83;101064.88;1705427;82;21568;-64
2021/10/27 12:27:43;;;;;;;32.60;22.10;;;;;;;11.23;55.03;101069.25;1655687;85;21069;-65
2021/10/27 12:30:15;;;;;;;24.70;21.93;;;;;;;11.21;55.11;101069.93;1700930;82;21089;-63
2021/10/27 12:32:56;;;;;;;30.30;21.57;;;;;;;11.23;55.19;101067.92;1716775;83;21073;-64
2021/10/27 12:35:28;;;;;;;26.67;20.10;;;;;;;11.27;55.46;101066.55;1743162;81;21520;-62
2021/10/27 12:38:28;;;;;;;23.63;20.33;;;;;;;11.31;55.33;101077.20;1751345;81;20964;-64
2021/10/27 12:40:51;;;;;;;31.33;22.20;;;;;;;11.33;55.35;101074.36;1743741;81;21090;-62
2021/10/27 12:43:19;;;;;;;28.97;23.67;;;;;;;11.33;55.48;101075.19;1758092;80;21062;-67
2021/10/27 12:45:54;;;;;;;25.63;21.03;;;;;;;11.30;55.30;101068.85;1766519;81;21727;-67
2021/10/27 12:48:27;;;;;;;27.63;21.40;;;;;;;11.30;55.51;101070.19;1758611;81;21582;-61
2021/10/27 12:51:01;;;;;;;25.23;20.60;;;;;;;11.27;55.67;101070.05;1765842;81;20991;-64
2021/10/27 12:53:40;;;;;;;30.82;22.00;;;;;;;11.24;56.04;101072.23;1766533;81;21446;-63
2021/10/27 12:56:14;;;;;;;24.70;20.60;;;;;;;11.19;56.17;101075.91;1750527;80;20991;-62
2021/10/27 12:58:48;;;;;;;26.67;19.03;;;;;;;11.18;56.43;101080.94;1753376;81;20935;-61
2021/10/27 13:04:31;;;;;;;20.50;16.90;;;;;;;11.22;57.06;101076.41;1765648;81;20996;-63
2021/10/27 13:07:17;;;;;;;25.07;19.97;;;;;;;11.19;57.61;101078.59;1744755;81;20990;-64
2021/10/27 13:17:40;;;;;;;26.00;19.40;;;;;;;10.92;58.76;101104.70;1760850;81;21550;-63
2021/10/27 13:30:54;;;;;;;24.93;19.37;;;;;;;10.71;60.14;101106.09;1755222;81;20963;-61
2021/10/27 13:33:23;;;;;;;22.80;17.77;;;;;;;10.62;60.38;101115.11;1757852;81;21122;-63
2021/10/27 13:35:51;;;;;;;21.63;17.63;;;;;;;10.55;60.93;101114.63;1725621;82;21003;-62
2021/10/27 13:38:20;;;;;;;24.47;20.33;;;;;;;10.52;60.89;101113.97;1712317;83;21050;-64
2021/10/27 13:40:48;;;;;;;20.13;17.77;;;;;;;10.53;60.96;101126.81;1713587;83;21065;-61
2021/10/27 13:43:23;;;;;;;28.50;18.40;;;;;;;10.52;61.33;101121.14;1709447;82;21071;-61
2021/10/27 13:46:09;;;;;;;23.03;17.33;;;;;;;10.51;61.23;101121.65;1707249;83;21515;-64
2021/10/27 13:48:33;;;;;;;19.32;16.67;;;;;;;10.55;61.24;101130.14;1713038;82;21545;-62
2021/10/27 14:07:30;;;;;;;27.40;18.63;;;;;;;10.29;61.91;101147.11;1680622;85;21106;-62
2021/10/27 14:10:14;;;;;;;23.93;17.93;;;;;;;10.22;62.18;101148.77;1711283;84;21007;-64
2021/10/27 14:50:47;;;;;;;21.23;17.27;;;;;;;10.03;63.20;101195.70;1689603;83;21018;-63
2021/10/27 15:20:35;;;;;;;28.33;20.67;;;;;;;9.73;64.67;101224.58;1754784;80;21114;-63
2021/10/27 15:23:04;;;;;;;26.07;20.27;;;;;;;9.71;64.83;101219.92;1720489;80;20985;-61
2021/10/27 15:41:42;;;;;;;21.97;16.73;;;;;;;9.79;65.42;101226.59;1715420;82;21054;-65
2021/10/27 15:52:07;;;;;;;20.40;15.93;;;;;;;9.86;65.43;101219.63;1711172;83;21076;-65
2021/10/27 15:54:32;;;;;;;22.50;16.20;;;;;;;9.92;65.29;101226.96;1693272;83;21473;-63
2021/10/27 15:56:59;;;;;;;23.00;17.52;;;;;;;9.86;65.39;101222.30;1677682;81;21029;-61
2021/10/27 15:59:25;;;;;;;24.20;17.37;;;;;;;9.87;65.48;101227.97;1666943;84;20984;-62
2021/10/27 16:01:52;;;;;;;26.30;18.67;;;;;;;9.90;65.37;101224.96;1689138;83;21556;-62
2021/10/27 16:04:19;;;;;;;26.47;17.53;;;;;;;9.94;65.33;101231.66;1686875;83;21083;-63